createdAt,value
2018-11-04T00:07:46.649Z,23.3
2018-11-04T00:17:45.815Z,23
2018-11-04T00:27:45.038Z,23.1
2018-11-04T00:37:44.245Z,23
2018-11-04T00:47:43.467Z,22.9
2018-11-04T00:57:42.681Z,23.1
2018-11-04T01:07:41.897Z,22.8
2018-11-04T01:17:41.139Z,23.3
2018-11-04T01:27:40.323Z,23.6
2018-11-04T01:37:39.536Z,22.6
2018-11-04T01:47:38.752Z,22.9
2018-11-04T01:57:37.967Z,22.8
2018-11-04T02:07:37.188Z,22.6
2018-11-04T02:17:36.401Z,22.9
2018-11-04T02:27:35.627Z,22.6
2018-11-04T02:37:34.829Z,22.9
2018-11-04T02:47:34.045Z,22.8
2018-11-04T02:57:33.274Z,22.9
2018-11-04T03:07:32.474Z,23.5
2018-11-04T03:17:31.691Z,23.1
2018-11-04T03:27:30.905Z,22.4
2018-11-04T03:37:30.121Z,23.4
2018-11-04T03:47:29.333Z,23.4
2018-11-04T03:57:28.553Z,23
2018-11-04T04:07:27.769Z,22.9
2018-11-04T04:17:26.984Z,22.4
2018-11-04T04:27:26.194Z,22.7
2018-11-04T04:37:25.412Z,23
2018-11-04T04:47:24.627Z,23.1
2018-11-04T04:57:23.843Z,22.9
2018-11-04T05:07:23.054Z,22.3
2018-11-04T05:17:22.326Z,22.4
2018-11-04T05:27:21.489Z,22.8
2018-11-04T05:37:20.702Z,22.8
2018-11-04T05:47:19.921Z,23
2018-11-04T05:57:19.138Z,23.2
2018-11-04T06:07:18.354Z,23.3
2018-11-04T06:17:17.564Z,23.6
2018-11-04T06:27:16.784Z,23.9
2018-11-04T06:37:16.006Z,24.1
2018-11-04T06:47:15.317Z,24.4
2018-11-04T06:57:14.431Z,24.6
2018-11-04T07:07:13.649Z,24.8
2018-11-04T07:17:12.869Z,24.9
2018-11-04T07:27:12.085Z,25.1
2018-11-04T07:37:11.298Z,25.1
2018-11-04T07:47:10.511Z,25.3
2018-11-04T07:57:09.733Z,25.3
2018-11-04T08:07:08.951Z,25.4
2018-11-04T08:17:08.168Z,25.5
2018-11-04T08:27:07.386Z,25.6
2018-11-04T08:47:05.825Z,25.8
2018-11-04T08:57:05.097Z,25.8
2018-11-04T09:07:04.264Z,25.9
2018-11-04T09:17:03.487Z,25.9
2018-11-04T09:27:02.703Z,25.9
2018-11-04T09:37:01.912Z,25.9
2018-11-04T09:47:01.140Z,25.8
2018-11-04T09:57:00.348Z,25.4
2018-11-04T10:06:59.636Z,25.3
2018-11-04T10:16:58.786Z,25.3
2018-11-04T10:26:58.000Z,25.4
2018-11-04T10:36:57.223Z,25
2018-11-04T10:46:56.437Z,24.9
2018-11-04T10:56:55.655Z,24.9
2018-11-04T11:06:54.878Z,24.9
2018-11-04T11:16:54.092Z,25.1
2018-11-04T11:26:53.309Z,24.7
2018-11-04T11:36:52.532Z,24.9
2018-11-04T11:46:51.741Z,24.8
2018-11-04T11:56:50.963Z,24.9
2018-11-04T12:06:50.179Z,24.7
2018-11-04T12:16:49.399Z,24.6
2018-11-04T12:26:48.617Z,24.4
2018-11-04T12:36:47.838Z,24.7
2018-11-04T12:46:47.054Z,24.6
2018-11-04T12:56:46.264Z,24.3
2018-11-04T13:06:45.485Z,24.3
2018-11-04T13:16:44.699Z,24.9
2018-11-04T13:26:43.927Z,24.7
2018-11-04T13:36:43.141Z,24.6
2018-11-04T13:46:42.356Z,24.9
2018-11-04T13:56:41.573Z,24.8
2018-11-04T14:06:40.786Z,24.5
2018-11-04T14:16:40.011Z,24.3
2018-11-04T14:26:39.227Z,23.9
2018-11-04T14:36:38.444Z,23.8
2018-11-04T14:46:37.659Z,23.8
2018-11-04T14:56:36.881Z,23.6
2018-11-04T15:06:36.104Z,23.2
2018-11-04T15:16:35.311Z,23.2
2018-11-04T15:26:34.641Z,22.9
2018-11-04T15:36:33.750Z,23.1
2018-11-04T15:46:32.971Z,23.4
2018-11-04T15:56:32.187Z,23.4
2018-11-04T16:06:31.408Z,23.4
2018-11-04T16:16:30.729Z,23.6
2018-11-04T16:26:29.839Z,23.5
2018-11-04T16:36:29.063Z,23.6
2018-11-04T16:46:28.281Z,23.6
2018-11-04T16:56:27.501Z,23.3
2018-11-04T17:06:26.746Z,23.4
2018-11-04T17:16:25.933Z,23.6
2018-11-04T17:26:25.152Z,23.7
2018-11-04T17:36:24.442Z,23.6
2018-11-04T17:46:23.586Z,23.5
2018-11-04T17:56:22.804Z,23.4
2018-11-04T18:06:22.028Z,23.4
2018-11-04T18:16:21.234Z,23.3
2018-11-04T18:26:20.561Z,23.2
2018-11-04T18:36:19.672Z,23.3
2018-11-04T18:46:18.881Z,23.3
2018-11-04T18:56:18.102Z,23.3
2018-11-04T19:06:17.342Z,23.2
2018-11-04T19:16:16.529Z,23
2018-11-04T19:26:15.751Z,23
2018-11-04T19:36:14.967Z,23.1
2018-11-04T19:46:14.178Z,23.1
2018-11-04T19:56:13.398Z,23
2018-11-04T20:06:12.644Z,23.2
2018-11-04T20:16:11.834Z,23.2
2018-11-04T20:26:11.051Z,22.9
2018-11-04T20:36:10.265Z,23.2
2018-11-04T20:46:09.469Z,22.9
2018-11-04T20:56:08.690Z,23.1
2018-11-04T21:06:07.935Z,23.1
2018-11-04T21:16:07.249Z,23
2018-11-04T21:26:06.334Z,23
2018-11-04T21:36:05.545Z,23.1
2018-11-04T21:46:04.761Z,22.9
2018-11-04T21:56:04.131Z,23.1
2018-11-04T22:06:03.195Z,22.8
2018-11-04T22:16:02.413Z,23
2018-11-04T22:26:01.621Z,23.9
2018-11-04T22:36:00.839Z,23.8
2018-11-04T22:46:00.050Z,22.8
2018-11-04T22:55:59.317Z,22.6
2018-11-04T23:05:58.486Z,22.8
2018-11-04T23:15:57.698Z,22.7
2018-11-04T23:25:56.907Z,22.9
2018-11-04T23:35:56.123Z,22.6
2018-11-04T23:45:55.340Z,22.9
2018-11-04T23:55:54.555Z,22.9
